Time;durP1;ratioP1;P1;durP2;ratioP2;P2;SDS_P1;SDS_P2;PMS_P1;PMS_P2;Temp;Humidity;BMP_temperature;BMP_pressure;BME280_temperature;BME280_humidity;BME280_pressure;Samples;Min_cycle;Max_cycle;Signal;HPM_P1;HPM_P2
2021/09/11 00:01:36;;;;;;;16.88;11.57;;;17.90;99.90;;;;;;5063105;28;20032;-66
2021/09/11 00:04:02;;;;;;;16.27;11.15;;;17.90;99.90;;;;;;5064625;28;20095;-68
2021/09/11 00:06:27;;;;;;;17.80;11.90;;;17.90;99.90;;;;;;5063483;28;20025;-66
2021/09/11 00:08:53;;;;;;;16.50;11.48;;;17.90;99.90;;;;;;5064190;28;20059;-66
2021/09/11 00:11:19;;;;;;;14.95;11.05;;;17.90;99.90;;;;;;5064699;28;20115;-66
2021/09/11 00:13:44;;;;;;;14.98;10.48;;;17.90;99.90;;;;;;5065215;28;20103;-66
2021/09/11 00:16:10;;;;;;;13.85;10.80;;;17.90;99.90;;;;;;5060492;28;20028;-66
2021/09/11 00:18:36;;;;;;;12.23;9.85;;;17.90;99.90;;;;;;5062167;28;20040;-67
2021/09/11 00:21:01;;;;;;;13.90;10.48;;;18.00;99.90;;;;;;5064703;28;20127;-66
2021/09/11 00:23:27;;;;;;;13.23;10.27;;;18.00;99.90;;;;;;5062221;28;20461;-66
2021/09/11 00:25:53;;;;;;;12.05;9.55;;;18.00;99.90;;;;;;5058750;28;20025;-67
2021/09/11 00:28:19;;;;;;;14.05;10.73;;;18.00;99.90;;;;;;5064077;28;20623;-66
2021/09/11 00:30:44;;;;;;;12.20;9.80;;;17.90;99.90;;;;;;5065963;28;20447;-67
2021/09/11 00:33:10;;;;;;;14.32;10.48;;;18.00;99.90;;;;;;5064179;28;20036;-66
2021/09/11 00:35:36;;;;;;;14.27;10.57;;;17.90;99.90;;;;;;5066338;28;20037;-66
2021/09/11 00:38:02;;;;;;;17.35;11.68;;;17.90;99.90;;;;;;5059891;28;20466;-66
2021/09/11 00:40:28;;;;;;;12.88;10.18;;;17.90;99.90;;;;;;5061660;28;20052;-67
2021/09/11 00:42:53;;;;;;;14.35;10.57;;;17.90;99.90;;;;;;5062254;28;20060;-66
2021/09/11 00:45:21;;;;;;;15.02;11.02;;;17.90;99.90;;;;;;5064503;28;20025;-66
2021/09/11 00:47:48;;;;;;;18.13;12.90;;;17.90;99.90;;;;;;5063067;28;20029;-66
2021/09/11 00:50:15;;;;;;;15.82;12.02;;;17.80;99.90;;;;;;5064430;28;20029;-66
2021/09/11 00:52:42;;;;;;;18.10;12.57;;;17.80;99.90;;;;;;5066273;28;20039;-66
2021/09/11 00:55:09;;;;;;;17.85;12.07;;;17.80;99.90;;;;;;5061394;28;20021;-67
2021/09/11 00:57:38;;;;;;;18.83;13.70;;;17.80;99.90;;;;;;5062525;28;20036;-66
2021/09/11 01:00:05;;;;;;;16.90;12.38;;;17.80;99.90;;;;;;5061203;28;20029;-67
2021/09/11 01:02:30;;;;;;;16.98;12.10;;;17.80;99.90;;;;;;5063565;28;20121;-66
2021/09/11 01:04:56;;;;;;;18.48;12.73;;;17.80;99.90;;;;;;5061278;28;20107;-66
2021/09/11 01:07:24;;;;;;;20.75;13.60;;;17.80;99.90;;;;;;5063549;28;20036;-66
2021/09/11 01:09:50;;;;;;;19.77;13.00;;;17.80;99.90;;;;;;5060896;28;20021;-66
2021/09/11 01:12:17;;;;;;;19.30;12.93;;;17.90;99.90;;;;;;5062203;28;20032;-67
2021/09/11 01:14:42;;;;;;;23.02;13.88;;;17.80;99.90;;;;;;5061229;28;20112;-67
2021/09/11 01:17:17;;;;;;;18.40;13.55;;;17.80;99.90;;;;;;5063440;28;20112;-66
2021/09/11 01:19:43;;;;;;;18.73;13.40;;;17.80;99.90;;;;;;5062664;28;20040;-66
2021/09/11 01:22:16;;;;;;;19.27;13.68;;;17.80;99.90;;;;;;5062858;28;20890;-67
2021/09/11 01:25:03;;;;;;;19.98;14.02;;;17.80;99.90;;;;;;5063179;28;20032;-66
2021/09/11 01:27:31;;;;;;;19.80;14.68;;;17.80;99.90;;;;;;5062634;28;20029;-66
2021/09/11 01:29:58;;;;;;;24.20;14.98;;;17.80;99.90;;;;;;5061680;28;20352;-67
2021/09/11 01:32:24;;;;;;;22.80;14.75;;;17.80;99.90;;;;;;5059480;28;20668;-67
2021/09/11 01:34:51;;;;;;;20.80;14.70;;;17.80;99.90;;;;;;5062489;28;20505;-66
2021/09/11 01:37:18;;;;;;;24.65;15.48;;;17.70;99.90;;;;;;5062231;28;20041;-67
2021/09/11 01:39:47;;;;;;;24.80;16.10;;;17.70;99.90;;;;;;5057546;28;20029;-66
2021/09/11 01:42:18;;;;;;;24.42;16.42;;;17.80;99.90;;;;;;5061778;28;20021;-66
2021/09/11 01:44:49;;;;;;;24.45;16.40;;;17.80;99.90;;;;;;5062534;28;20028;-67
2021/09/11 01:47:15;;;;;;;32.47;20.33;;;17.70;99.90;;;;;;5061929;28;20032;-66
2021/09/11 01:49:42;;;;;;;26.92;18.33;;;17.70;99.90;;;;;;5061853;28;20047;-67
2021/09/11 01:52:08;;;;;;;28.73;19.13;;;17.70;99.90;;;;;;5063258;28;20021;-67
2021/09/11 01:54:35;;;;;;;27.90;19.70;;;17.70;99.90;;;;;;5061730;28;20108;-66
2021/09/11 01:57:01;;;;;;;28.38;19.42;;;17.80;99.90;;;;;;5060884;28;20029;-66
2021/09/11 01:59:26;;;;;;;29.95;19.73;;;17.70;99.90;;;;;;5061627;28;20437;-66
2021/09/11 02:01:52;;;;;;;35.00;21.85;;;17.80;99.90;;;;;;5061144;28;20032;-66
2021/09/11 02:04:17;;;;;;;30.10;20.27;;;17.80;99.90;;;;;;5061325;28;20395;-67
2021/09/11 02:06:43;;;;;;;29.13;19.55;;;17.80;99.90;;;;;;5062335;28;20057;-66
2021/09/11 02:09:11;;;;;;;30.10;20.05;;;17.80;99.90;;;;;;5061669;28;20540;-67
2021/09/11 02:11:36;;;;;;;29.88;19.23;;;17.80;99.90;;;;;;5063951;28;20107;-66
2021/09/11 02:14:03;;;;;;;27.55;18.42;;;17.80;99.90;;;;;;5058518;28;20104;-66
2021/09/11 02:16:28;;;;;;;27.98;18.40;;;17.80;99.90;;;;;;5062701;28;20025;-67
2021/09/11 02:18:54;;;;;;;28.58;18.83;;;17.80;99.90;;;;;;5062119;28;20024;-66
2021/09/11 02:21:20;;;;;;;25.75;17.60;;;17.80;99.90;;;;;;5064212;28;20044;-66
2021/09/11 02:23:45;;;;;;;27.17;18.35;;;17.80;99.90;;;;;;5062421;28;20056;-67
2021/09/11 02:26:11;;;;;;;26.70;17.70;;;17.80;99.90;;;;;;5060001;28;20025;-66
2021/09/11 02:28:37;;;;;;;26.98;18.88;;;17.90;99.90;;;;;;5062275;28;20100;-66
2021/09/11 02:31:03;;;;;;;25.55;17.13;;;17.90;99.90;;;;;;5060906;28;20033;-66
2021/09/11 02:33:28;;;;;;;30.33;19.27;;;17.90;99.90;;;;;;5061668;28;20084;-66
2021/09/11 02:35:54;;;;;;;31.65;20.00;;;17.90;99.90;;;;;;5061279;28;20033;-66
2021/09/11 02:38:20;;;;;;;32.65;19.38;;;17.90;99.90;;;;;;5064669;28;20036;-66
2021/09/11 02:40:45;;;;;;;35.67;21.85;;;17.90;99.90;;;;;;5061489;28;20399;-67
2021/09/11 02:43:11;;;;;;;35.28;20.55;;;17.90;99.90;;;;;;5061169;28;20039;-67
2021/09/11 02:45:37;;;;;;;38.63;22.05;;;17.90;99.90;;;;;;5060098;28;20370;-66
2021/09/11 02:48:02;;;;;;;47.17;25.27;;;17.90;99.90;;;;;;5059217;28;20104;-67
2021/09/11 02:50:28;;;;;;;39.83;23.95;;;17.90;99.90;;;;;;5063423;28;20469;-69
2021/09/11 02:52:54;;;;;;;41.80;25.30;;;17.90;99.90;;;;;;5062273;28;20580;-66
2021/09/11 02:55:19;;;;;;;46.55;24.42;;;17.90;99.90;;;;;;5067598;28;20025;-66
2021/09/11 02:57:45;;;;;;;52.17;26.02;;;17.90;99.90;;;;;;5061554;28;20568;-66
2021/09/11 03:00:11;;;;;;;42.40;23.77;;;17.90;99.90;;;;;;5062829;28;20060;-67
2021/09/11 03:02:37;;;;;;;38.17;23.38;;;17.90;99.90;;;;;;5059033;28;20036;-66
2021/09/11 03:05:04;;;;;;;40.47;22.55;;;17.90;99.90;;;;;;5063086;28;20025;-66
2021/09/11 03:07:29;;;;;;;43.40;24.60;;;17.90;99.90;;;;;;5062237;28;20040;-67
2021/09/11 03:09:55;;;;;;;37.13;22.10;;;17.90;99.90;;;;;;5061435;28;20438;-67
2021/09/11 03:12:21;;;;;;;38.80;22.52;;;17.90;99.90;;;;;;5062151;28;20045;-67
2021/09/11 03:14:46;;;;;;;39.25;22.80;;;17.90;99.90;;;;;;5059976;28;20035;-66
2021/09/11 03:17:12;;;;;;;36.65;21.42;;;17.90;99.90;;;;;;5061020;28;20543;-67
2021/09/11 03:19:38;;;;;;;36.75;21.48;;;17.90;99.90;;;;;;5061686;28;20048;-66
2021/09/11 03:22:04;;;;;;;38.20;21.23;;;17.90;99.90;;;;;;5062118;28;20032;-67
2021/09/11 03:24:30;;;;;;;46.35;24.02;;;17.90;99.90;;;;;;5061345;28;20025;-66
2021/09/11 03:26:56;;;;;;;43.67;24.40;;;17.90;99.90;;;;;;5060937;28;20032;-66
2021/09/11 03:29:21;;;;;;;43.85;22.63;;;17.90;99.90;;;;;;5061134;28;20032;-67
2021/09/11 03:31:47;;;;;;;46.47;24.50;;;17.90;99.90;;;;;;5060855;28;20036;-67
2021/09/11 03:34:13;;;;;;;53.53;26.95;;;17.90;99.90;;;;;;5064235;28;20112;-67
2021/09/11 03:36:38;;;;;;;44.10;23.38;;;17.80;99.90;;;;;;5065230;28;20041;-67
2021/09/11 03:39:04;;;;;;;36.80;21.38;;;17.90;99.90;;;;;;5062194;28;20132;-67
2021/09/11 03:41:30;;;;;;;43.92;21.40;;;17.90;99.90;;;;;;5064042;28;20359;-66
2021/09/11 03:43:55;;;;;;;40.03;21.50;;;17.90;99.90;;;;;;5063282;28;20098;-66
2021/09/11 03:46:21;;;;;;;38.88;20.70;;;17.90;99.90;;;;;;5065171;28;20028;-67
2021/09/11 03:48:47;;;;;;;41.55;23.08;;;18.00;99.90;;;;;;5064878;28;20483;-68
2021/09/11 03:51:13;;;;;;;38.00;21.75;;;17.90;99.90;;;;;;5064277;28;20039;-67
2021/09/11 03:53:38;;;;;;;41.90;23.02;;;18.00;99.90;;;;;;5065938;28;20068;-67
2021/09/11 03:56:04;;;;;;;35.45;21.33;;;18.00;99.90;;;;;;5065322;28;20490;-66
2021/09/11 03:58:30;;;;;;;37.72;21.80;;;18.00;99.90;;;;;;5064390;28;20569;-66
2021/09/11 04:00:56;;;;;;;41.15;21.48;;;18.00;99.90;;;;;;5062502;28;20032;-66
2021/09/11 04:03:22;;;;;;;41.50;22.98;;;18.00;99.90;;;;;;5067124;28;20116;-67
2021/09/11 04:05:47;;;;;;;44.30;23.77;;;18.00;99.90;;;;;;5063807;28;20021;-67
2021/09/11 04:08:13;;;;;;;46.78;25.45;;;18.00;99.90;;;;;;5063308;28;20025;-66
2021/09/11 04:10:38;;;;;;;46.08;25.05;;;18.00;99.90;;;;;;5065425;28;20043;-67
2021/09/11 04:13:04;;;;;;;45.03;24.88;;;18.00;99.90;;;;;;5062810;28;20585;-67
2021/09/11 04:15:30;;;;;;;49.72;25.92;;;18.00;99.90;;;;;;5064955;28;20036;-66
2021/09/11 04:17:55;;;;;;;50.40;25.85;;;18.00;99.90;;;;;;5064021;28;20032;-67
2021/09/11 04:20:21;;;;;;;51.67;27.17;;;18.00;99.90;;;;;;5063355;28;20111;-67
2021/09/11 04:22:47;;;;;;;50.38;27.48;;;18.00;99.90;;;;;;5063899;28;20818;-67
2021/09/11 04:25:13;;;;;;;49.92;26.27;;;18.00;99.90;;;;;;5064716;28;20444;-67
2021/09/11 04:27:38;;;;;;;58.92;29.85;;;18.00;99.90;;;;;;5064056;28;20029;-67
2021/09/11 04:30:06;;;;;;;56.55;28.88;;;18.00;99.90;;;;;;5066546;28;20502;-68
2021/09/11 04:32:31;;;;;;;59.95;30.05;;;18.00;99.90;;;;;;5062135;28;20064;-66
2021/09/11 04:34:57;;;;;;;53.33;28.17;;;18.00;99.90;;;;;;5065152;28;20067;-66
2021/09/11 04:37:23;;;;;;;54.33;28.95;;;18.00;99.90;;;;;;5064252;28;20024;-66
2021/09/11 04:39:48;;;;;;;60.15;30.88;;;18.10;99.90;;;;;;5063097;28;20068;-66
2021/09/11 04:42:14;;;;;;;63.75;31.40;;;18.10;99.90;;;;;;5061600;28;20055;-67
2021/09/11 04:44:40;;;;;;;62.83;29.92;;;18.10;99.90;;;;;;5060764;28;20036;-67
2021/09/11 04:47:05;;;;;;;56.80;28.30;;;18.10;99.90;;;;;;5062943;28;20055;-67
2021/09/11 04:49:31;;;;;;;67.32;31.73;;;18.10;99.90;;;;;;5063480;28;20029;-67
2021/09/11 04:51:57;;;;;;;69.75;32.50;;;18.10;99.90;;;;;;5065403;28;20048;-67
2021/09/11 04:54:22;;;;;;;68.80;32.38;;;18.10;99.90;;;;;;5064407;28;20468;-66
2021/09/11 04:56:48;;;;;;;66.03;32.47;;;18.00;99.90;;;;;;5064723;28;20037;-66
2021/09/11 04:59:13;;;;;;;72.05;33.88;;;18.10;99.90;;;;;;5065084;28;20604;-66
2021/09/11 05:01:39;;;;;;;62.95;31.00;;;18.10;99.90;;;;;;5061377;28;20025;-66
2021/09/11 05:04:05;;;;;;;65.13;31.13;;;18.10;99.90;;;;;;5062147;28;20029;-66
2021/09/11 05:06:31;;;;;;;68.30;31.60;;;18.10;99.90;;;;;;5062164;28;20507;-66
2021/09/11 05:08:57;;;;;;;71.22;32.47;;;18.10;99.90;;;;;;5062877;28;20383;-66
2021/09/11 05:11:22;;;;;;;64.60;32.08;;;18.10;99.90;;;;;;5065485;28;20029;-66
2021/09/11 05:13:48;;;;;;;72.30;33.08;;;18.10;99.90;;;;;;5064308;28;20111;-67
2021/09/11 05:16:14;;;;;;;70.00;32.15;;;18.10;99.90;;;;;;5064740;28;20029;-67
2021/09/11 05:18:39;;;;;;;71.03;30.52;;;18.10;99.90;;;;;;5062078;28;20410;-66
2021/09/11 05:21:07;;;;;;;69.32;30.80;;;18.10;99.90;;;;;;5061056;28;20033;-67
2021/09/11 05:23:33;;;;;;;70.40;32.88;;;18.10;99.90;;;;;;5068880;28;20036;-67
2021/09/11 05:26:04;;;;;;;83.93;35.65;;;18.10;99.90;;;;;;5064042;28;20108;-67
2021/09/11 05:28:30;;;;;;;69.20;32.40;;;18.10;99.90;;;;;;5062268;28;20078;-66
2021/09/11 05:30:56;;;;;;;66.45;30.58;;;18.10;99.90;;;;;;5062963;28;20033;-66
2021/09/11 05:33:21;;;;;;;64.80;31.08;;;18.20;99.90;;;;;;5063467;28;20495;-66
2021/09/11 05:35:47;;;;;;;70.85;31.08;;;18.10;99.90;;;;;;5060834;28;20043;-67
2021/09/11 05:38:13;;;;;;;68.47;31.17;;;18.10;99.90;;;;;;5062831;28;20122;-66
2021/09/11 05:40:38;;;;;;;68.78;31.77;;;18.20;99.90;;;;;;5061940;28;20398;-66
2021/09/11 05:43:04;;;;;;;69.88;32.28;;;18.10;99.90;;;;;;5060799;28;20032;-67
2021/09/11 05:45:30;;;;;;;66.10;31.17;;;18.20;99.90;;;;;;5058808;28;20032;-66
2021/09/11 05:47:55;;;;;;;73.93;33.97;;;18.20;99.90;;;;;;5061197;28;20021;-66
2021/09/11 05:50:21;;;;;;;75.53;33.95;;;18.20;99.90;;;;;;5061647;28;20061;-67
2021/09/11 05:52:46;;;;;;;102.97;40.72;;;18.20;99.90;;;;;;5061905;28;20411;-66
2021/09/11 05:55:13;;;;;;;82.30;36.50;;;18.30;99.90;;;;;;5060797;28;20403;-66
2021/09/11 05:57:38;;;;;;;79.10;33.13;;;18.30;99.90;;;;;;5060643;28;20040;-66
2021/09/11 06:00:05;;;;;;;92.95;38.13;;;18.20;99.90;;;;;;5062803;28;20025;-66
2021/09/11 06:02:30;;;;;;;90.72;38.35;;;18.20;99.90;;;;;;5056640;28;20024;-67
2021/09/11 06:04:56;;;;;;;95.53;39.30;;;18.30;99.90;;;;;;5059114;28;20398;-66
2021/09/11 06:07:22;;;;;;;88.40;35.55;;;18.20;99.90;;;;;;5059086;28;20250;-66
2021/09/11 06:09:47;;;;;;;92.57;35.42;;;18.20;99.90;;;;;;5061361;28;20106;-67
2021/09/11 06:12:13;;;;;;;80.82;34.83;;;18.20;99.90;;;;;;5061482;28;20025;-67
2021/09/11 06:14:39;;;;;;;81.60;35.60;;;18.20;99.90;;;;;;5059437;28;20025;-66
2021/09/11 06:17:07;;;;;;;78.80;34.35;;;18.20;99.90;;;;;;5059360;28;20043;-66
2021/09/11 06:19:34;;;;;;;88.60;36.85;;;18.20;99.90;;;;;;5059837;28;20485;-66
2021/09/11 06:22:00;;;;;;;70.10;31.33;;;18.20;99.90;;;;;;5059664;28;20032;-66
2021/09/11 06:24:26;;;;;;;55.65;25.25;;;18.20;99.90;;;;;;5056126;28;20829;-66
2021/09/11 06:26:52;;;;;;;66.03;30.58;;;18.30;99.90;;;;;;5062561;28;20063;-66
2021/09/11 06:29:18;;;;;;;60.20;29.95;;;18.40;99.90;;;;;;5055473;28;20059;-66
2021/09/11 06:31:43;;;;;;;59.33;30.35;;;18.50;99.90;;;;;;5060827;28;20025;-66
2021/09/11 06:34:09;;;;;;;60.25;29.40;;;18.50;99.90;;;;;;5060441;28;20040;-68
2021/09/11 06:36:35;;;;;;;62.55;30.77;;;18.50;99.90;;;;;;5061115;28;20025;-67
2021/09/11 06:39:00;;;;;;;56.45;28.75;;;18.60;99.90;;;;;;5059888;28;20033;-66
2021/09/11 06:41:26;;;;;;;52.05;28.08;;;18.60;99.90;;;;;;5060078;28;20024;-66
2021/09/11 06:43:52;;;;;;;54.33;29.50;;;18.60;99.90;;;;;;5053104;28;20029;-66
2021/09/11 06:46:18;;;;;;;53.95;28.25;;;18.70;99.90;;;;;;5057759;28;20052;-67
2021/09/11 06:48:43;;;;;;;52.00;28.50;;;18.70;99.90;;;;;;5055879;28;20044;-67
2021/09/11 06:51:13;;;;;;;52.28;28.33;;;18.70;99.90;;;;;;5059741;28;20025;-67
2021/09/11 06:53:39;;;;;;;47.00;27.27;;;18.70;99.90;;;;;;5057675;28;20137;-67
2021/09/11 06:56:05;;;;;;;46.08;26.13;;;18.70;99.90;;;;;;5054563;28;20044;-67
2021/09/11 06:58:31;;;;;;;44.13;24.90;;;18.80;99.90;;;;;;5055298;28;20498;-68
2021/09/11 07:00:57;;;;;;;43.28;26.02;;;18.90;99.90;;;;;;5052403;28;20032;-67
2021/09/11 07:03:23;;;;;;;44.95;25.45;;;19.00;99.90;;;;;;5058149;28;20043;-67
2021/09/11 07:05:48;;;;;;;45.60;25.25;;;19.10;99.90;;;;;;5056973;28;20067;-67
2021/09/11 07:08:14;;;;;;;39.38;23.75;;;19.20;99.90;;;;;;5059024;28;20025;-67
2021/09/11 07:10:43;;;;;;;43.38;25.00;;;19.30;99.90;;;;;;5061762;28;20025;-66
2021/09/11 07:13:08;;;;;;;43.70;26.30;;;19.40;99.90;;;;;;5061575;28;20024;-69
2021/09/11 07:15:34;;;;;;;38.33;22.70;;;19.50;99.90;;;;;;5061353;28;20047;-69
2021/09/11 07:18:01;;;;;;;38.03;24.23;;;19.50;99.90;;;;;;5063437;28;20025;-70
2021/09/11 07:20:29;;;;;;;36.80;24.13;;;19.60;99.90;;;;;;5063705;28;20056;-72
2021/09/11 07:22:55;;;;;;;41.83;25.17;;;19.60;99.90;;;;;;5063866;28;20021;-70
2021/09/11 07:25:21;;;;;;;43.25;26.10;;;19.60;99.90;;;;;;5057501;28;20037;-70
2021/09/11 07:27:47;;;;;;;41.45;25.52;;;19.50;99.90;;;;;;5060436;28;20383;-69
2021/09/11 07:30:12;;;;;;;38.10;24.35;;;19.40;99.90;;;;;;5065910;28;20844;-71
2021/09/11 07:32:38;;;;;;;36.70;24.15;;;19.40;99.90;;;;;;5066839;28;20036;-69
2021/09/11 07:35:05;;;;;;;45.15;26.40;;;19.30;99.90;;;;;;5068198;28;20083;-70
2021/09/11 07:37:31;;;;;;;40.33;24.63;;;19.30;99.90;;;;;;5064935;28;20032;-70
2021/09/11 07:39:56;;;;;;;39.67;24.20;;;19.30;99.90;;;;;;5065939;28;20099;-71
2021/09/11 07:42:22;;;;;;;40.47;25.33;;;19.30;99.90;;;;;;5067446;28;20025;-71
2021/09/11 07:44:48;;;;;;;42.30;24.48;;;19.40;99.90;;;;;;5065578;28;20050;-71
2021/09/11 07:47:16;;;;;;;42.78;25.65;;;19.30;99.90;;;;;;5061734;28;20025;-69
2021/09/11 07:49:43;;;;;;;47.30;26.13;;;19.30;99.90;;;;;;5065307;28;20033;-68
2021/09/11 07:52:08;;;;;;;36.83;23.95;;;19.30;99.90;;;;;;5063691;28;20025;-69
2021/09/11 07:54:34;;;;;;;40.95;23.88;;;19.30;99.90;;;;;;5061603;28;20028;-70
2021/09/11 07:57:00;;;;;;;39.42;24.00;;;19.30;99.90;;;;;;5060153;28;20041;-69
2021/09/11 07:59:25;;;;;;;38.33;24.42;;;19.30;99.90;;;;;;5063809;28;20112;-67
2021/09/11 08:01:51;;;;;;;38.38;22.83;;;19.40;99.90;;;;;;5060630;28;20056;-71
2021/09/11 08:04:17;;;;;;;39.15;23.40;;;19.30;99.90;;;;;;5057316;28;20067;-68
2021/09/11 08:06:42;;;;;;;40.42;25.13;;;19.40;99.90;;;;;;5064277;28;20078;-70
2021/09/11 08:09:08;;;;;;;44.78;26.92;;;19.30;99.90;;;;;;5059393;28;20083;-69
2021/09/11 08:11:34;;;;;;;37.70;23.45;;;19.40;99.90;;;;;;5061055;28;20037;-69
2021/09/11 08:14:00;;;;;;;42.17;23.05;;;19.40;99.90;;;;;;5062289;28;20043;-71
2021/09/11 08:16:25;;;;;;;39.55;22.95;;;19.40;99.90;;;;;;5061097;28;20111;-74
2021/09/11 08:18:51;;;;;;;44.97;24.95;;;19.40;99.90;;;;;;5057867;28;20032;-70
2021/09/11 08:21:17;;;;;;;44.83;25.80;;;19.40;99.90;;;;;;5058678;28;20060;-71
2021/09/11 08:23:43;;;;;;;37.88;23.75;;;19.40;99.90;;;;;;5064807;28;20021;-70
2021/09/11 08:26:09;;;;;;;40.08;22.98;;;19.50;99.90;;;;;;5059622;28;21760;-71
2021/09/11 08:28:35;;;;;;;40.10;23.73;;;19.50;99.90;;;;;;5080487;28;20926;-71
2021/09/11 08:31:01;;;;;;;41.40;23.50;;;19.50;99.90;;;;;;5041487;28;20039;-71
2021/09/11 08:33:27;;;;;;;35.40;21.77;;;19.50;99.90;;;;;;5061115;28;20453;-71
2021/09/11 08:35:52;;;;;;;42.85;24.52;;;19.50;99.90;;;;;;5058381;28;20028;-71
2021/09/11 08:38:18;;;;;;;38.42;22.17;;;19.50;99.90;;;;;;5057820;28;20426;-71
2021/09/11 08:40:44;;;;;;;39.13;24.05;;;19.50;99.90;;;;;;5061679;28;20032;-72
2021/09/11 08:43:14;;;;;;;43.72;25.38;;;19.50;99.90;;;;;;5061956;28;20061;-71
2021/09/11 08:45:39;;;;;;;38.90;23.02;;;19.40;99.90;;;;;;5059845;28;20390;-71
2021/09/11 08:48:05;;;;;;;41.33;24.15;;;19.40;99.90;;;;;;5065128;28;20020;-71
2021/09/11 08:50:31;;;;;;;48.22;26.85;;;19.40;99.90;;;;;;5056507;28;20036;-70
2021/09/11 08:52:57;;;;;;;48.67;28.63;;;19.30;99.90;;;;;;5060508;28;20032;-69
2021/09/11 08:55:22;;;;;;;41.95;24.58;;;19.30;99.90;;;;;;5061147;28;20485;-68
2021/09/11 08:58:03;;;;;;;57.05;30.85;;;19.30;99.90;;;;;;5059670;28;20119;-69
2021/09/11 09:00:42;;;;;;;45.43;25.40;;;19.30;99.90;;;;;;5059392;28;20115;-69
2021/09/11 09:03:42;;;;;;;50.00;28.20;;;19.20;99.90;;;;;;5059891;28;20242;-69
2021/09/11 09:06:20;;;;;;;50.50;27.37;;;19.30;99.90;;;;;;5062214;28;20025;-68
2021/09/11 09:08:53;;;;;;;50.03;26.52;;;19.20;99.90;;;;;;5059907;28;20696;-69
2021/09/11 09:11:27;;;;;;;45.05;25.73;;;19.30;99.90;;;;;;5061729;28;20039;-69
2021/09/11 09:14:06;;;;;;;46.08;24.40;;;19.30;99.90;;;;;;5060705;28;20036;-69
2021/09/11 09:16:38;;;;;;;44.50;25.55;;;19.30;99.90;;;;;;5057481;28;20029;-69
2021/09/11 09:19:12;;;;;;;42.85;24.92;;;19.40;99.90;;;;;;5058787;28;20509;-68
2021/09/11 09:21:40;;;;;;;51.35;28.92;;;19.50;99.90;;;;;;5059269;28;20038;-69
2021/09/11 09:24:08;;;;;;;44.97;25.20;;;19.50;99.90;;;;;;5061533;28;20044;-69
2021/09/11 09:26:55;;;;;;;49.13;26.88;;;19.50;99.90;;;;;;5056721;28;20024;-69
2021/09/11 09:29:21;;;;;;;47.20;25.63;;;19.60;99.90;;;;;;5056061;28;20033;-68
2021/09/11 09:31:50;;;;;;;44.50;25.67;;;19.50;99.90;;;;;;5055912;28;20103;-68
2021/09/11 09:34:36;;;;;;;46.25;25.88;;;19.50;99.90;;;;;;5058384;28;20051;-69
2021/09/11 09:37:05;;;;;;;43.88;25.80;;;19.60;99.90;;;;;;5058808;28;20025;-69
2021/09/11 09:39:59;;;;;;;41.97;24.40;;;19.70;99.90;;;;;;5056066;28;20063;-68
2021/09/11 09:42:28;;;;;;;43.45;23.95;;;19.90;99.90;;;;;;5057682;28;20020;-69
2021/09/11 09:44:55;;;;;;;39.25;24.02;;;20.10;99.90;;;;;;5053594;28;20043;-69
2021/09/11 09:47:25;;;;;;;43.88;26.27;;;20.30;99.90;;;;;;5059969;28;20551;-69
2021/09/11 09:50:17;;;;;;;38.60;25.25;;;20.50;99.90;;;;;;5055783;28;20056;-69
2021/09/11 09:52:42;;;;;;;39.17;23.67;;;20.60;99.90;;;;;;5051399;28;20102;-70
2021/09/11 09:55:09;;;;;;;34.05;21.65;;;20.80;99.90;;;;;;5058775;28;20032;-70
2021/09/11 09:57:38;;;;;;;36.65;23.33;;;20.80;99.90;;;;;;5055628;28;20033;-70
2021/09/11 10:00:04;;;;;;;35.53;22.23;;;20.80;99.90;;;;;;5060633;28;20021;-68
2021/09/11 10:02:31;;;;;;;35.67;20.63;;;20.80;99.90;;;;;;5061437;28;20164;-69
2021/09/11 10:04:57;;;;;;;32.80;21.73;;;20.80;99.90;;;;;;5058093;28;20025;-71
2021/09/11 10:07:25;;;;;;;71.57;45.22;;;20.70;99.90;;;;;;5056853;28;20025;-68
2021/09/11 10:09:51;;;;;;;122.97;82.47;;;20.70;99.90;;;;;;5059232;28;20436;-68
2021/09/11 10:12:35;;;;;;;92.90;65.85;;;20.90;99.90;;;;;;5057946;28;20037;-68
2021/09/11 10:15:26;;;;;;;31.55;21.88;;;21.10;99.90;;;;;;5055436;28;20029;-69
2021/09/11 10:17:52;;;;;;;31.85;19.98;;;21.30;99.90;;;;;;5060859;28;20035;-69
2021/09/11 10:20:18;;;;;;;28.40;18.52;;;21.40;99.90;;;;;;5061159;28;20029;-68
2021/09/11 10:23:04;;;;;;;24.55;16.90;;;21.50;99.90;;;;;;5057247;28;20494;-69
2021/09/11 10:25:43;;;;;;;21.67;14.68;;;21.50;99.90;;;;;;5055270;28;20048;-70
2021/09/11 10:28:18;;;;;;;27.88;17.58;;;21.60;99.90;;;;;;5053711;28;20025;-69
2021/09/11 10:31:02;;;;;;;29.20;17.95;;;21.40;99.90;;;;;;5058020;28;20052;-69
2021/09/11 10:33:51;;;;;;;23.00;15.98;;;21.30;99.90;;;;;;5056425;28;20054;-68
2021/09/11 10:36:46;;;;;;;27.13;18.33;;;21.20;99.90;;;;;;5054108;28;20392;-68
2021/09/11 10:39:12;;;;;;;23.77;15.15;;;21.00;99.90;;;;;;5057510;28;20033;-70
2021/09/11 10:41:38;;;;;;;29.88;17.65;;;21.00;99.90;;;;;;5058297;28;20020;-69
2021/09/11 10:44:05;;;;;;;25.30;16.67;;;21.10;99.90;;;;;;5057123;28;20406;-68
2021/09/11 10:46:51;;;;;;;32.90;20.10;;;21.30;99.90;;;;;;5060742;28;20340;-68
2021/09/11 10:49:31;;;;;;;31.17;18.88;;;21.40;99.90;;;;;;5055170;28;20036;-69
2021/09/11 10:52:15;;;;;;;26.20;17.50;;;21.60;99.90;;;;;;5053532;28;20039;-69
2021/09/11 10:54:44;;;;;;;28.92;18.40;;;21.80;99.90;;;;;;5057067;28;20047;-69
2021/09/11 10:57:18;;;;;;;24.80;16.33;;;21.80;99.90;;;;;;5060562;28;20029;-69
2021/09/11 10:59:50;;;;;;;27.33;17.83;;;21.80;99.90;;;;;;5057794;28;20451;-69
2021/09/11 11:02:31;;;;;;;384.45;300.30;;;21.60;99.90;;;;;;5057590;28;20150;-69
2021/09/11 11:05:02;;;;;;;127.32;97.00;;;21.50;99.90;;;;;;5056884;28;20036;-69
2021/09/11 11:07:31;;;;;;;53.80;40.08;;;21.30;99.90;;;;;;5052175;28;20025;-69
2021/09/11 11:10:02;;;;;;;29.50;20.58;;;21.20;99.90;;;;;;5054445;28;20039;-69
2021/09/11 11:12:31;;;;;;;26.00;17.42;;;21.10;99.90;;;;;;5052318;28;20120;-69
2021/09/11 11:15:02;;;;;;;24.95;17.98;;;20.90;99.90;;;;;;5047751;28;20028;-68
2021/09/11 11:17:29;;;;;;;26.15;17.40;;;20.80;99.90;;;;;;5055916;28;20033;-68
2021/09/11 11:19:56;;;;;;;24.00;16.90;;;20.70;99.90;;;;;;5059786;28;20032;-67
2021/09/11 11:22:38;;;;;;;23.63;16.52;;;20.60;99.90;;;;;;5057075;28;20060;-67
2021/09/11 11:25:15;;;;;;;23.27;16.08;;;20.60;99.90;;;;;;5060511;28;20036;-67
2021/09/11 11:27:42;;;;;;;23.35;15.30;;;20.70;99.90;;;;;;5059375;28;20028;-67
2021/09/11 11:30:11;;;;;;;18.65;14.50;;;20.90;99.90;;;;;;5058135;28;20567;-67
2021/09/11 11:32:37;;;;;;;15.93;13.02;;;20.80;99.70;;;;;;5060765;28;20449;-68
2021/09/11 11:35:05;;;;;;;17.45;13.50;;;20.90;99.90;;;;;;5057166;28;20032;-67
2021/09/11 11:37:36;;;;;;;19.20;12.82;;;20.90;99.90;;;;;;5060217;28;20056;-67
2021/09/11 11:40:13;;;;;;;15.80;12.43;;;21.00;99.90;;;;;;5059049;28;20534;-68
2021/09/11 11:42:42;;;;;;;18.08;12.70;;;21.00;99.20;;;;;;5059606;28;20040;-67
2021/09/11 11:45:12;;;;;;;15.55;11.25;;;21.00;99.90;;;;;;5061178;28;20104;-67
2021/09/11 11:48:04;;;;;;;14.65;11.18;;;21.00;99.90;;;;;;5060187;28;20432;-68
2021/09/11 11:50:32;;;;;;;11.85;10.52;;;21.00;99.90;;;;;;5057658;28;20040;-67
2021/09/11 11:53:02;;;;;;;18.17;12.35;;;21.00;99.90;;;;;;5061219;28;20032;-67
2021/09/11 11:55:31;;;;;;;15.80;12.38;;;21.00;99.90;;;;;;5062273;28;20079;-67
2021/09/11 11:58:13;;;;;;;18.58;12.32;;;20.90;99.90;;;;;;5062560;28;20029;-67
2021/09/11 12:00:41;;;;;;;14.77;10.40;;;20.90;99.90;;;;;;5059077;28;20032;-67
2021/09/11 12:03:27;;;;;;;11.57;10.07;;;20.80;99.90;;;;;;5061591;28;20155;-68
2021/09/11 12:05:53;;;;;;;17.77;11.20;;;20.80;99.90;;;;;;5060310;28;20029;-67
2021/09/11 12:08:18;;;;;;;26.52;13.60;;;20.80;99.90;;;;;;5063016;28;20029;-68
2021/09/11 12:10:53;;;;;;;13.50;9.23;;;20.80;99.90;;;;;;5060716;28;20498;-68
2021/09/11 12:13:20;;;;;;;11.73;9.73;;;20.80;99.90;;;;;;5063289;28;20482;-67
2021/09/11 12:15:47;;;;;;;10.25;9.23;;;20.90;99.90;;;;;;5063829;28;20099;-68
2021/09/11 12:18:15;;;;;;;10.98;8.98;;;21.30;99.90;;;;;;5063088;28;20370;-67
2021/09/11 12:20:54;;;;;;;10.45;7.85;;;21.60;99.80;;;;;;5074914;28;20081;-67
2021/09/11 12:23:31;;;;;;;9.52;7.00;;;22.30;99.20;;;;;;5063982;28;20028;-68
2021/09/11 12:26:00;;;;;;;9.32;6.82;;;22.70;98.60;;;;;;5062490;28;20487;-68
2021/09/11 12:28:40;;;;;;;9.07;7.13;;;22.90;97.20;;;;;;5063491;28;20509;-68
2021/09/11 12:31:20;;;;;;;7.15;6.45;;;23.30;97.20;;;;;;5066672;28;20028;-67
2021/09/11 12:34:05;;;;;;;8.80;6.85;;;23.60;96.00;;;;;;5062223;28;20036;-67